Time;durP1;ratioP1;P1;durP2;ratioP2;P2;SDS_P1;SDS_P2;PMS_P1;PMS_P2;Temp;Humidity;BMP_temperature;BMP_pressure;BME280_temperature;BME280_humidity;BME280_pressure;Samples;Min_cycle;Max_cycle;Signal;HPM_P1;HPM_P2
2022/06/03 00:01:11;;;;;;;;;;;;;;;7.90;81.21;101233.27;84821;1327;25385;-70
2022/06/03 00:03:28;;;;;;;;;;;;;;;7.89;81.28;101233.64;84796;1327;22644;-70
2022/06/03 00:06:00;;;;;;;;;;;;;;;7.86;81.40;101233.14;84838;1326;22622;-70
2022/06/03 00:08:14;;;;;;;;;;;;;;;7.84;81.64;101237.88;84738;1322;22557;-70
2022/06/03 00:10:31;;;;;;;;;;;;;;;7.84;81.78;101239.79;84824;1327;22670;-70
2022/06/03 00:13:02;;;;;;;;;;;;;;;7.83;81.42;101241.02;84827;1328;22663;-70
2022/06/03 00:15:12;;;;;;;;;;;;;;;7.81;81.52;101241.38;84824;1327;22606;-70
2022/06/03 00:17:34;;;;;;;;;;;;;;;7.79;81.49;101243.15;84784;1329;25929;-70
2022/06/03 00:19:51;;;;;;;;;;;;;;;7.76;81.48;101244.05;84823;1325;25232;-71
2022/06/03 00:22:05;;;;;;;;;;;;;;;7.72;81.54;101245.13;84793;1328;23020;-71
2022/06/03 00:24:17;;;;;;;;;;;;;;;7.68;81.38;101245.53;84816;1328;22561;-71
2022/06/03 00:26:39;;;;;;;;;;;;;;;7.67;81.72;101244.33;84831;1328;22967;-71
2022/06/03 00:28:53;;;;;;;;;;;;;;;7.65;81.95;101242.63;84771;1327;25935;-71
2022/06/03 00:31:09;;;;;;;;;;;;;;;7.62;81.97;101241.96;84806;1328;22553;-71
2022/06/03 00:33:38;;;;;;;;;;;;;;;7.58;81.70;101239.92;84809;1325;25265;-71
2022/06/03 00:35:55;;;;;;;;;;;;;;;7.54;81.74;101240.14;84836;1327;22592;-71
2022/06/03 00:38:05;;;;;;;;;;;;;;;7.52;81.87;101242.08;84833;1325;22585;-71
2022/06/03 00:40:24;;;;;;;;;;;;;;;7.46;81.90;101241.80;84834;1326;22551;-71
2022/06/03 00:42:43;;;;;;;;;;;;;;;7.41;81.90;101236.98;84824;1322;24230;-71
2022/06/03 00:45:00;;;;;;;;;;;;;;;7.36;82.07;101238.60;84833;1327;22559;-69
2022/06/03 00:47:16;;;;;;;;;;;;;;;7.32;82.05;101235.87;84821;1327;22585;-71
2022/06/03 00:49:49;;;;;;;;;;;;;;;7.28;82.22;101236.44;84802;1327;22565;-69
2022/06/03 00:52:09;;;;;;;;;;;;;;;7.25;82.41;101235.61;84811;1323;22574;-71
2022/06/03 00:54:44;;;;;;;;;;;;;;;7.22;82.49;101234.77;84828;1327;22558;-71
2022/06/03 00:57:22;;;;;;;;;;;;;;;7.19;82.64;101238.27;84797;1327;24241;-71
2022/06/03 00:59:47;;;;;;;;;;;;;;;7.21;83.21;101238.42;84811;1327;22553;-71
2022/06/03 01:01:59;;;;;;;;;;;;;;;7.21;83.03;101240.52;84817;1327;22744;-71
2022/06/03 01:04:26;;;;;;;;;;;;;;;7.19;83.25;101239.66;84794;1327;22572;-71
2022/06/03 01:06:40;;;;;;;;;;;;;;;7.18;83.40;101242.25;84789;1325;22662;-71
2022/06/03 01:08:51;;;;;;;;;;;;;;;7.17;83.55;101245.22;84798;1328;22586;-71
2022/06/03 01:11:15;;;;;;;;;;;;;;;7.16;83.73;101240.22;84807;1326;22567;-71
2022/06/03 01:13:33;;;;;;;;;;;;;;;7.14;83.37;101242.31;84820;1326;25310;-71
2022/06/03 01:15:42;;;;;;;;;;;;;;;7.13;83.75;101244.04;84817;1327;22652;-71
2022/06/03 01:17:54;;;;;;;;;;;;;;;7.14;83.88;101241.78;84816;1326;22565;-71
2022/06/03 01:20:10;;;;;;;;;;;;;;;7.17;84.02;101243.66;84800;1328;24243;-69
2022/06/03 01:22:37;;;;;;;;;;;;;;;7.19;84.05;101243.11;84814;1325;22608;-70
2022/06/03 01:24:55;;;;;;;;;;;;;;;7.21;83.97;101246.73;84804;1327;22591;-71
2022/06/03 01:27:31;;;;;;;;;;;;;;;7.21;84.06;101249.52;84801;1327;22912;-71
2022/06/03 01:29:50;;;;;;;;;;;;;;;7.20;83.53;101245.20;84802;1326;22578;-71
2022/06/03 01:32:28;;;;;;;;;;;;;;;7.18;83.46;101242.43;84819;1327;22718;-71
2022/06/03 01:34:41;;;;;;;;;;;;;;;7.17;83.58;101243.51;84804;1327;23994;-71
2022/06/03 01:37:04;;;;;;;;;;;;;;;7.14;83.53;101241.11;84796;1327;22561;-71
2022/06/03 01:39:36;;;;;;;;;;;;;;;7.12;83.60;101241.11;84781;1326;22578;-71
2022/06/03 01:42:13;;;;;;;;;;;;;;;7.12;83.70;101244.06;84780;1327;22667;-71
2022/06/03 01:44:31;;;;;;;;;;;;;;;7.11;83.80;101245.98;84797;1325;22560;-71
2022/06/03 01:46:37;;;;;;;;;;;;;;;7.06;83.30;101243.08;84778;1327;25432;-71
2022/06/03 01:49:16;;;;;;;;;;;;;;;7.02;83.29;101239.48;84817;1327;24644;-71
2022/06/03 01:51:39;;;;;;;;;;;;;;;6.95;83.09;101236.23;84801;1322;22557;-71
2022/06/03 01:54:10;;;;;;;;;;;;;;;6.89;83.26;101232.83;84718;1327;22760;-71
2022/06/03 01:56:34;;;;;;;;;;;;;;;6.82;83.37;101232.72;84765;1327;22602;-71
2022/06/03 01:58:59;;;;;;;;;;;;;;;6.77;83.55;101231.21;84784;1327;22836;-71
2022/06/03 02:01:14;;;;;;;;;;;;;;;6.71;83.63;101230.39;84772;1326;22838;-71
2022/06/03 02:03:41;;;;;;;;;;;;;;;6.65;83.61;101230.77;84766;1327;22595;-71
2022/06/03 02:06:40;;;;;;;;;;;;;;;6.60;83.75;101229.79;84507;1326;385793;-71
2022/06/03 02:09:09;;;;;;;;;;;;;;;6.56;84.29;101229.83;84793;1328;22596;-71
2022/06/03 02:11:29;;;;;;;;;;;;;;;6.54;84.45;101235.02;84796;1326;25907;-71
2022/06/03 02:14:09;;;;;;;;;;;;;;;6.52;84.54;101232.79;84781;1328;22587;-72
2022/06/03 02:16:38;;;;;;;;;;;;;;;6.49;84.64;101235.74;84650;1327;25407;-71
2022/06/03 02:19:07;;;;;;;;;;;;;;;6.48;84.91;101235.06;84783;1326;22568;-71
2022/06/03 02:21:44;;;;;;;;;;;;;;;6.49;85.07;101239.74;84789;1326;22653;-71
2022/06/03 02:24:30;;;;;;;;;;;;;;;6.49;85.06;101240.26;84791;1327;24270;-71
2022/06/03 02:26:46;;;;;;;;;;;;;;;6.49;85.00;101236.09;84429;1331;25304;-71
2022/06/03 02:31:47;;;;;;;;;;;;;;;6.50;85.10;101239.56;84765;1326;22622;-70
2022/06/03 02:34:03;;;;;;;;;;;;;;;6.52;85.09;101242.16;84801;1327;25427;-70
2022/06/03 02:36:47;;;;;;;;;;;;;;;6.51;85.29;101242.86;84794;1326;25291;-71
2022/06/03 02:39:00;;;;;;;;;;;;;;;6.51;85.09;101242.16;84422;1331;24238;-71
2022/06/03 02:41:27;;;;;;;;;;;;;;;6.52;85.60;101241.12;84793;1326;22565;-71
2022/06/03 02:43:55;;;;;;;;;;;;;;;6.53;85.49;101238.33;84764;1326;22709;-71
2022/06/03 02:46:15;;;;;;;;;;;;;;;6.55;85.31;101241.77;84779;1327;22598;-71
2022/06/03 02:48:33;;;;;;;;;;;;;;;6.57;85.61;101242.29;84761;1327;22803;-71
2022/06/03 02:50:46;;;;;;;;;;;;;;;6.60;85.56;101240.35;84783;1327;22676;-71
2022/06/03 02:53:27;;;;;;;;;;;;;;;6.62;85.83;101240.70;84772;1327;22566;-71
2022/06/03 02:55:44;;;;;;;;;;;;;;;6.66;85.72;101244.81;84790;1326;24209;-71
2022/06/03 02:58:05;;;;;;;;;;;;;;;6.72;85.96;101245.48;84809;1326;22688;-71
2022/06/03 03:00:19;;;;;;;;;;;;;;;6.77;86.10;101245.77;84814;1321;22544;-71
2022/06/03 03:02:41;;;;;;;;;;;;;;;6.82;86.04;101252.14;84815;1322;22565;-71
2022/06/03 03:05:06;;;;;;;;;;;;;;;6.87;86.22;101256.61;84807;1325;22666;-71
2022/06/03 03:07:21;;;;;;;;;;;;;;;6.93;86.05;101258.81;84791;1327;22501;-71
2022/06/03 03:09:44;;;;;;;;;;;;;;;6.96;86.22;101263.81;84768;1328;25444;-71
2022/06/03 03:12:19;;;;;;;;;;;;;;;7.03;86.22;101266.88;84806;1323;22569;-71
2022/06/03 03:14:35;;;;;;;;;;;;;;;7.09;86.08;101265.27;84771;1327;25384;-71
2022/06/03 03:16:54;;;;;;;;;;;;;;;7.16;86.43;101266.75;84799;1325;22828;-71
2022/06/03 03:19:22;;;;;;;;;;;;;;;7.24;86.34;101271.02;84812;1327;22576;-71
2022/06/03 03:21:45;;;;;;;;;;;;;;;7.33;86.28;101272.15;84815;1325;22564;-71
2022/06/03 03:24:09;;;;;;;;;;;;;;;7.44;86.42;101278.27;84781;1323;24216;-70
2022/06/03 03:26:18;;;;;;;;;;;;;;;7.64;86.14;101280.84;84788;1326;22562;-70
2022/06/03 03:29:06;;;;;;;;;;;;;;;7.82;86.26;101280.97;84777;1327;22741;-71
2022/06/03 03:31:28;;;;;;;;;;;;;;;8.16;85.90;101288.34;84819;1327;22559;-71
2022/06/03 03:33:44;;;;;;;;;;;;;;;8.66;85.70;101283.99;84833;1327;25256;-71
2022/06/03 03:36:06;;;;;;;;;;;;;;;9.63;85.92;101278.82;84827;1327;22664;-71
2022/06/03 03:38:48;;;;;;;;;;;;;;;10.70;85.30;101278.45;84803;1327;22786;-71
2022/06/03 03:41:37;;;;;;;;;;;;;;;11.85;83.49;101282.94;84832;1327;25232;-71
2022/06/03 03:44:15;;;;;;;;;;;;;;;12.92;81.39;101280.70;84660;1328;25288;-71
2022/06/03 03:46:52;;;;;;;;;;;;;;;13.93;80.42;101285.77;84804;1325;22850;-71
2022/06/03 03:49:33;;;;;;;;;;;;;;;15.02;79.70;101282.52;84799;1326;22617;-71
2022/06/03 03:52:02;;;;;;;;;;;;;;;15.95;75.25;101284.60;84654;1325;22652;-71
2022/06/03 03:54:43;;;;;;;;;;;;;;;16.74;73.34;101287.06;84776;1327;22697;-71
2022/06/03 03:57:06;;;;;;;;;;;;;;;17.49;69.17;101290.83;84739;1327;22591;-71
2022/06/03 03:59:41;;;;;;;;;;;;;;;18.17;66.32;101292.03;84793;1327;22587;-71
2022/06/03 04:02:12;;;;;;;;;;;;;;;18.67;63.73;101290.09;84791;1327;22569;-71
2022/06/03 04:04:53;;;;;;;;;;;;;;;19.30;61.89;101287.45;84784;1324;22665;-71
2022/06/03 04:07:14;;;;;;;;;;;;;;;19.82;60.24;101288.95;84776;1327;24318;-71
2022/06/03 04:09:41;;;;;;;;;;;;;;;20.27;57.89;101291.43;84774;1327;22838;-72
2022/06/03 04:12:03;;;;;;;;;;;;;;;20.62;56.12;101286.84;84801;1327;22808;-72
2022/06/03 04:14:24;;;;;;;;;;;;;;;21.09;54.76;101288.71;84784;1329;22805;-72
2022/06/03 04:17:15;;;;;;;;;;;;;;;21.49;53.12;101287.80;84777;1321;22561;-72
2022/06/03 04:19:50;;;;;;;;;;;;;;;22.03;51.79;101284.85;84600;1327;25475;-72
2022/06/03 04:22:19;;;;;;;;;;;;;;;22.33;50.47;101288.73;84780;1327;22925;-72
2022/06/03 04:24:45;;;;;;;;;;;;;;;22.64;49.48;101287.67;84571;1328;22715;-72
2022/06/03 04:27:18;;;;;;;;;;;;;;;22.71;48.53;101289.16;84734;1327;22726;-72
2022/06/03 04:29:52;;;;;;;;;;;;;;;22.72;48.80;101290.20;84795;1326;22589;-72
2022/06/03 04:32:28;;;;;;;;;;;;;;;22.52;47.96;101291.96;84768;1327;22573;-72
2022/06/03 04:35:07;;;;;;;;;;;;;;;21.99;48.51;101297.38;84759;1326;22629;-70
2022/06/03 04:37:28;;;;;;;;;;;;;;;21.37;48.57;101300.80;84802;1325;22635;-73
2022/06/03 04:40:12;;;;;;;;;;;;;;;20.72;49.56;101304.96;84733;1324;22623;-70
2022/06/03 04:42:42;;;;;;;;;;;;;;;20.33;51.36;101310.14;84714;1331;22808;-70
2022/06/03 04:45:32;;;;;;;;;;;;;;;20.74;52.08;101305.58;84723;1330;22591;-70
2022/06/03 04:48:04;;;;;;;;;;;;;;;21.75;50.82;101302.98;84572;1325;22685;-68
2022/06/03 04:50:45;;;;;;;;;;;;;;;22.64;50.02;101300.66;84783;1326;22555;-67
2022/06/03 04:53:28;;;;;;;;;;;;;;;23.64;48.52;101303.48;84682;1326;26012;-68
2022/06/03 04:56:05;;;;;;;;;;;;;;;24.67;47.13;101308.02;84783;1327;25401;-68
2022/06/03 04:58:39;;;;;;;;;;;;;;;25.43;45.60;101306.30;84764;1327;22577;-69
2022/06/03 05:01:06;;;;;;;;;;;;;;;26.12;43.65;101307.11;84792;1324;22665;-71
2022/06/03 05:03:57;;;;;;;;;;;;;;;26.78;41.55;101307.75;84793;1327;22574;-71
2022/06/03 05:06:27;;;;;;;;;;;;;;;27.53;39.33;101308.80;84774;1327;22565;-71
2022/06/03 05:09:12;;;;;;;;;;;;;;;27.97;37.74;101307.36;84774;1326;22555;-71
2022/06/03 05:11:48;;;;;;;;;;;;;;;28.42;38.14;101310.88;84796;1327;22587;-71
2022/06/03 05:14:36;;;;;;;;;;;;;;;28.61;36.92;101313.64;84795;1326;22588;-71
2022/06/03 05:17:17;;;;;;;;;;;;;;;28.79;36.38;101313.66;84769;1326;22687;-71
2022/06/03 05:19:46;;;;;;;;;;;;;;;28.96;34.83;101314.33;84807;1327;22600;-71
2022/06/03 05:22:40;;;;;;;;;;;;;;;29.23;33.83;101316.08;84774;1327;22583;-71
2022/06/03 05:25:23;;;;;;;;;;;;;;;29.49;32.25;101316.45;84257;1335;22710;-71
2022/06/03 05:27:43;;;;;;;;;;;;;;;29.46;32.39;101313.69;84499;1331;22618;-71
2022/06/03 05:30:07;;;;;;;;;;;;;;;29.71;31.55;101315.45;84586;1324;22727;-71
2022/06/03 05:32:57;;;;;;;;;;;;;;;29.88;30.88;101312.34;84786;1326;22563;-71
2022/06/03 05:35:10;;;;;;;;;;;;;;;29.94;30.07;101311.37;84585;1327;22617;-71
2022/06/03 05:37:33;;;;;;;;;;;;;;;30.04;30.03;101314.92;84724;1329;22892;-71
2022/06/03 05:40:15;;;;;;;;;;;;;;;30.09;29.88;101312.52;84784;1327;22563;-71
2022/06/03 05:42:36;;;;;;;;;;;;;;;30.54;29.37;101313.45;84794;1327;23123;-71
2022/06/03 05:44:51;;;;;;;;;;;;;;;30.83;28.69;101315.25;84793;1327;25234;-71
2022/06/03 05:47:01;;;;;;;;;;;;;;;31.02;28.31;101315.48;84770;1324;22573;-71
2022/06/03 05:49:16;;;;;;;;;;;;;;;31.20;27.80;101316.38;84761;1325;22705;-71
2022/06/03 05:51:39;;;;;;;;;;;;;;;31.41;27.36;101311.68;84800;1325;22577;-71
2022/06/03 05:53:50;;;;;;;;;;;;;;;31.53;27.24;101313.92;84802;1326;23900;-71
2022/06/03 05:56:02;;;;;;;;;;;;;;;31.72;26.88;101315.10;84795;1326;22559;-71
2022/06/03 05:58:30;;;;;;;;;;;;;;;32.02;26.97;101313.66;84775;1325;22554;-71
2022/06/03 06:00:59;;;;;;;;;;;;;;;32.21;25.43;101307.78;84758;1327;24280;-71
2022/06/03 06:03:17;;;;;;;;;;;;;;;32.02;25.79;101307.42;84778;1327;24360;-71
2022/06/03 06:05:36;;;;;;;;;;;;;;;32.19;26.12;101313.01;84755;1326;22592;-71
2022/06/03 06:07:49;;;;;;;;;;;;;;;32.27;25.51;101312.60;84767;1324;22840;-71
2022/06/03 06:09:57;;;;;;;;;;;;;;;32.49;25.47;101319.20;84763;1326;22670;-72
2022/06/03 06:12:22;;;;;;;;;;;;;;;32.60;24.74;101324.42;84802;1325;22796;-72
2022/06/03 06:14:32;;;;;;;;;;;;;;;32.81;24.34;101323.89;84786;1326;25241;-72
2022/06/03 06:16:40;;;;;;;;;;;;;;;32.90;24.13;101323.27;84766;1326;22620;-72
2022/06/03 06:18:56;;;;;;;;;;;;;;;33.19;23.52;101326.00;84836;1327;24328;-72
2022/06/03 06:21:19;;;;;;;;;;;;;;;33.28;23.23;101328.90;84790;1325;22780;-72
2022/06/03 06:23:30;;;;;;;;;;;;;;;33.42;22.80;101329.77;84772;1327;22595;-72
2022/06/03 06:25:38;;;;;;;;;;;;;;;33.47;23.01;101330.83;84800;1327;24395;-72
2022/06/03 06:27:58;;;;;;;;;;;;;;;33.57;23.15;101326.54;84757;1326;25345;-72
2022/06/03 06:30:22;;;;;;;;;;;;;;;33.92;22.58;101325.09;84776;1326;23384;-72
2022/06/03 06:32:51;;;;;;;;;;;;;;;34.01;21.97;101320.44;84789;1327;22901;-72
2022/06/03 06:35:14;;;;;;;;;;;;;;;33.97;22.54;101319.80;84772;1322;22812;-72
2022/06/03 06:37:44;;;;;;;;;;;;;;;34.12;22.47;101320.90;84798;1327;22572;-72
2022/06/03 06:40:16;;;;;;;;;;;;;;;34.54;21.94;101322.85;84728;1327;22654;-72
2022/06/03 06:42:30;;;;;;;;;;;;;;;34.64;21.14;101319.63;84736;1327;23057;-72
2022/06/03 06:44:38;;;;;;;;;;;;;;;34.75;21.49;101321.68;84765;1326;25298;-72
2022/06/03 06:46:57;;;;;;;;;;;;;;;34.79;21.07;101322.64;84793;1326;25488;-72
2022/06/03 06:49:34;;;;;;;;;;;;;;;34.77;20.09;101323.38;84791;1326;25406;-72
2022/06/03 06:52:18;;;;;;;;;;;;;;;34.73;20.88;101318.73;84797;1327;22734;-72
2022/06/03 06:54:41;;;;;;;;;;;;;;;35.13;20.64;101326.00;84589;1326;22663;-72
2022/06/03 07:00:45;;;;;;;;;;;;;;;35.59;20.33;101323.17;84500;1333;25921;-72
2022/06/03 07:02:55;;;;;;;;;;;;;;;35.40;20.03;101319.01;84490;1334;25413;-72
2022/06/03 07:05:05;;;;;;;;;;;;;;;35.56;20.38;101314.76;84627;1330;22702;-72
2022/06/03 07:07:15;;;;;;;;;;;;;;;35.71;20.16;101315.56;84791;1326;22573;-72
2022/06/03 07:09:40;;;;;;;;;;;;;;;35.64;19.64;101317.90;84790;1326;24434;-72
2022/06/03 07:11:59;;;;;;;;;;;;;;;35.91;19.86;101313.41;84768;1326;22581;-72
2022/06/03 07:14:07;;;;;;;;;;;;;;;36.05;19.39;101310.19;84775;1326;25939;-72
2022/06/03 07:19:47;;;;;;;;;;;;;;;35.97;18.97;101311.27;84775;1326;22589;-72
2022/06/03 07:21:12;;;;;;;;;;;;;;;36.42;20.01;101303.87;84771;1328;22562;-72
2022/06/03 07:23:22;;;;;;;;;;;;;;;36.66;19.26;101304.09;84791;1327;22581;-72
2022/06/03 07:25:32;;;;;;;;;;;;;;;36.55;19.18;101302.40;84790;1326;23022;-72
2022/06/03 07:27:53;;;;;;;;;;;;;;;36.52;19.22;101302.31;84787;1327;22592;-74
2022/06/03 07:30:03;;;;;;;;;;;;;;;36.46;19.65;101301.62;84805;1322;22555;-72
2022/06/03 07:32:13;;;;;;;;;;;;;;;36.38;19.25;101299.56;84841;1326;22580;-74
2022/06/03 07:34:25;;;;;;;;;;;;;;;36.57;18.88;101300.27;84789;1326;22573;-74
2022/06/03 07:36:39;;;;;;;;;;;;;;;36.87;19.07;101303.59;84763;1327;22956;-74
2022/06/03 07:38:47;;;;;;;;;;;;;;;36.92;19.22;101304.84;84792;1326;22565;-74
2022/06/03 07:40:56;;;;;;;;;;;;;;;37.08;19.32;101301.42;84797;1322;22587;-74
2022/06/03 07:43:05;;;;;;;;;;;;;;;37.27;19.37;101302.08;84825;1325;22557;-74
2022/06/03 07:45:30;;;;;;;;;;;;;;;37.59;18.98;101307.02;84782;1329;22557;-74
2022/06/03 07:47:36;;;;;;;;;;;;;;;37.83;17.99;101301.24;84814;1327;24324;-74
2022/06/03 07:49:52;;;;;;;;;;;;;;;37.92;17.95;101302.87;84797;1326;22593;-75
2022/06/03 07:52:00;;;;;;;;;;;;;;;37.64;17.80;101302.74;84807;1324;22567;-75
2022/06/03 07:54:08;;;;;;;;;;;;;;;36.38;18.30;101303.81;84816;1327;22585;-75
2022/06/03 07:56:14;;;;;;;;;;;;;;;35.52;19.28;101303.86;84807;1325;22675;-74
2022/06/03 07:58:23;;;;;;;;;;;;;;;35.33;19.21;101300.88;84764;1328;22643;-75
2022/06/03 08:00:34;;;;;;;;;;;;;;;35.43;20.01;101303.05;84814;1326;22600;-75
2022/06/03 08:02:40;;;;;;;;;;;;;;;35.64;19.23;101300.34;84806;1325;22572;-75
2022/06/03 08:04:48;;;;;;;;;;;;;;;35.71;18.90;101298.33;84821;1327;22545;-75
2022/06/03 08:11:45;;;;;;;;;;;;;;;34.74;18.84;101302.62;84805;1325;22827;-75
2022/06/03 08:13:53;;;;;;;;;;;;;;;33.87;20.39;101306.93;84832;1326;25336;-75
2022/06/03 08:16:00;;;;;;;;;;;;;;;33.63;21.13;101308.80;84814;1327;22573;-75
2022/06/03 08:18:07;;;;;;;;;;;;;;;33.61;21.56;101309.70;84823;1322;22860;-75
2022/06/03 08:20:14;;;;;;;;;;;;;;;34.18;21.50;101311.48;84816;1327;22580;-74
2022/06/03 08:22:22;;;;;;;;;;;;;;;34.66;20.92;101304.40;84822;1327;22626;-73
2022/06/03 08:24:31;;;;;;;;;;;;;;;35.14;20.94;101308.12;84813;1327;22553;-73
2022/06/03 08:26:39;;;;;;;;;;;;;;;35.71;20.30;101306.67;84824;1321;22654;-73
2022/06/03 08:28:48;;;;;;;;;;;;;;;35.70;19.38;101302.95;84835;1322;24385;-73
2022/06/03 08:31:04;;;;;;;;;;;;;;;36.02;19.62;101297.50;84808;1328;24338;-75
2022/06/03 08:33:11;;;;;;;;;;;;;;;36.52;19.04;101293.95;84834;1325;22654;-73
2022/06/03 08:35:28;;;;;;;;;;;;;;;36.92;19.06;101293.98;84819;1325;23881;-72
2022/06/03 08:37:40;;;;;;;;;;;;;;;37.35;17.35;101293.39;84825;1327;22570;-74
2022/06/03 08:39:47;;;;;;;;;;;;;;;37.19;17.03;101296.13;84770;1327;22574;-77
2022/06/03 08:42:18;;;;;;;;;;;;;;;36.58;17.93;101300.02;84837;1328;22573;-77
2022/06/03 08:44:36;;;;;;;;;;;;;;;36.67;17.75;101295.96;84793;1327;22854;-75
2022/06/03 08:46:46;;;;;;;;;;;;;;;36.80;18.37;101297.60;84820;1328;22558;-76
2022/06/03 08:48:53;;;;;;;;;;;;;;;36.96;16.84;101292.73;84837;1327;22640;-74
2022/06/03 08:51:00;;;;;;;;;;;;;;;36.97;17.19;101291.48;84819;1321;22575;-74
2022/06/03 08:53:39;;;;;;;;;;;;;;;37.17;17.28;101290.51;84826;1325;22593;-76
2022/06/03 08:55:50;;;;;;;;;;;;;;;37.39;17.23;101284.45;84711;1329;24487;-76
2022/06/03 08:57:59;;;;;;;;;;;;;;;37.60;17.35;101283.48;84790;1326;22698;-76
2022/06/03 09:00:09;;;;;;;;;;;;;;;37.77;17.14;101283.52;84783;1327;23032;-73
2022/06/03 09:02:20;;;;;;;;;;;;;;;37.87;17.64;101282.50;84800;1326;25108;-74
2022/06/03 09:04:29;;;;;;;;;;;;;;;37.89;17.48;101284.77;84785;1326;22688;-75
2022/06/03 09:06:45;;;;;;;;;;;;;;;37.86;16.80;101282.25;84788;1326;24064;-75
2022/06/03 09:08:58;;;;;;;;;;;;;;;37.66;17.19;101278.26;84816;1326;22664;-74
2022/06/03 09:11:09;;;;;;;;;;;;;;;37.34;17.36;101281.97;84803;1327;22689;-72
2022/06/03 09:13:23;;;;;;;;;;;;;;;36.92;17.51;101284.54;84820;1326;22583;-71
2022/06/03 09:15:33;;;;;;;;;;;;;;;36.30;18.10;101283.95;84808;1326;22571;-71
2022/06/03 09:17:41;;;;;;;;;;;;;;;35.67;18.07;101280.46;84792;1326;24251;-71
2022/06/03 09:19:47;;;;;;;;;;;;;;;34.74;18.78;101285.02;84806;1326;22574;-71
2022/06/03 09:21:56;;;;;;;;;;;;;;;33.77;19.33;101287.12;84792;1327;22587;-71
2022/06/03 09:24:07;;;;;;;;;;;;;;;32.88;20.33;101295.53;84802;1327;22585;-70
2022/06/03 09:26:20;;;;;;;;;;;;;;;32.18;21.48;101293.91;84801;1326;22969;-71
2022/06/03 09:28:31;;;;;;;;;;;;;;;31.92;21.97;101285.79;84793;1327;22655;-71
2022/06/03 09:30:40;;;;;;;;;;;;;;;31.83;22.43;101285.48;84826;1322;22559;-70
2022/06/03 09:32:49;;;;;;;;;;;;;;;31.53;22.75;101285.62;84774;1327;22618;-71
2022/06/03 09:34:57;;;;;;;;;;;;;;;30.88;22.74;101285.30;84827;1323;24067;-71
2022/06/03 09:37:04;;;;;;;;;;;;;;;30.18;23.09;101286.13;84791;1327;22755;-70
2022/06/03 09:39:11;;;;;;;;;;;;;;;29.50;23.69;101280.23;84801;1323;24217;-70
2022/06/03 09:41:17;;;;;;;;;;;;;;;29.19;25.22;101289.70;84804;1326;22574;-70
2022/06/03 09:43:25;;;;;;;;;;;;;;;29.16;25.38;101294.50;84790;1326;22577;-70
2022/06/03 09:45:31;;;;;;;;;;;;;;;29.33;25.15;101284.79;84785;1327;23930;-70
2022/06/03 09:47:37;;;;;;;;;;;;;;;29.51;25.81;101285.32;84806;1327;22628;-70
2022/06/03 09:49:43;;;;;;;;;;;;;;;29.62;24.73;101278.96;84807;1326;22635;-70
2022/06/03 09:51:59;;;;;;;;;;;;;;;29.75;24.47;101280.10;84811;1325;22569;-70
2022/06/03 09:54:06;;;;;;;;;;;;;;;29.93;25.09;101277.52;84800;1326;22558;-70
2022/06/03 09:56:17;;;;;;;;;;;;;;;30.18;24.81;101279.02;84755;1326;25264;-71
2022/06/03 09:58:25;;;;;;;;;;;;;;;30.18;24.96;101276.89;84795;1327;22981;-71
2022/06/03 10:00:40;;;;;;;;;;;;;;;30.10;25.62;101277.71;84797;1326;22700;-71
2022/06/03 10:02:46;;;;;;;;;;;;;;;30.02;24.95;101272.80;84790;1325;22713;-71
2022/06/03 10:04:52;;;;;;;;;;;;;;;29.60;24.23;101274.82;84532;1325;379751;-71
2022/06/03 10:07:00;;;;;;;;;;;;;;;29.11;25.08;101274.71;84780;1326;22571;-71
2022/06/03 10:13:55;;;;;;;;;;;;;;;28.30;26.24;101269.55;84787;1327;22576;-70
2022/06/03 10:16:03;;;;;;;;;;;;;;;28.01;26.63;101267.19;84792;1327;24533;-70
2022/06/03 10:18:19;;;;;;;;;;;;;;;28.00;26.79;101263.98;84788;1325;22635;-70
2022/06/03 10:20:25;;;;;;;;;;;;;;;28.21;26.79;101262.33;84738;1327;22960;-70
2022/06/03 10:22:31;;;;;;;;;;;;;;;28.54;26.91;101260.90;84780;1327;22612;-71
2022/06/03 10:24:37;;;;;;;;;;;;;;;28.81;26.82;101261.14;84784;1327;25926;-71
2022/06/03 10:26:49;;;;;;;;;;;;;;;29.09;27.04;101260.31;84788;1326;25409;-71
2022/06/03 10:28:56;;;;;;;;;;;;;;;29.30;26.17;101265.01;84799;1326;22559;-70
2022/06/03 10:31:05;;;;;;;;;;;;;;;29.37;25.54;101262.88;84831;1324;22654;-70
2022/06/03 10:33:18;;;;;;;;;;;;;;;29.40;25.34;101262.20;84800;1322;22581;-70
2022/06/03 10:35:28;;;;;;;;;;;;;;;29.36;25.57;101260.08;84810;1326;22690;-71
2022/06/03 10:37:35;;;;;;;;;;;;;;;29.29;25.80;101255.60;84798;1327;25420;-72
2022/06/03 10:39:42;;;;;;;;;;;;;;;29.18;24.72;101251.02;84797;1325;22791;-71
2022/06/03 10:41:49;;;;;;;;;;;;;;;29.04;25.99;101252.98;84816;1326;24385;-71
2022/06/03 10:43:55;;;;;;;;;;;;;;;29.13;26.36;101253.10;84796;1327;24632;-71
2022/06/03 10:46:10;;;;;;;;;;;;;;;29.09;26.44;101257.12;84797;1325;22562;-71
2022/06/03 10:48:24;;;;;;;;;;;;;;;29.06;26.17;101259.59;84811;1325;25390;-71
2022/06/03 10:50:35;;;;;;;;;;;;;;;29.05;26.34;101258.95;84789;1327;22612;-69
2022/06/03 11:02:24;;;;;;;;;;;;;;;27.79;27.38;101251.91;84816;1326;22566;-70
2022/06/03 11:04:33;;;;;;;;;;;;;;;27.39;27.30;101241.39;84824;1325;22591;-70
2022/06/03 11:09:27;;;;;;;;;;;;;;;26.60;28.05;101241.98;84823;1325;22601;-70
2022/06/03 11:11:38;;;;;;;;;;;;;;;26.36;28.55;101239.82;84810;1327;24242;-70
2022/06/03 11:13:44;;;;;;;;;;;;;;;26.46;29.33;101232.70;84830;1326;22675;-70
2022/06/03 11:15:54;;;;;;;;;;;;;;;26.67;29.72;101231.13;84815;1326;22626;-70
2022/06/03 11:18:01;;;;;;;;;;;;;;;26.91;29.67;101222.45;84833;1326;25893;-70
2022/06/03 11:20:24;;;;;;;;;;;;;;;27.19;29.62;101222.34;84821;1328;25904;-69
2022/06/03 11:22:39;;;;;;;;;;;;;;;27.47;29.31;101222.33;84808;1326;22576;-70
2022/06/03 11:24:47;;;;;;;;;;;;;;;27.67;28.99;101227.42;84805;1329;22841;-71
2022/06/03 11:26:53;;;;;;;;;;;;;;;27.65;28.61;101224.02;84811;1323;22563;-71
2022/06/03 11:29:01;;;;;;;;;;;;;;;27.44;28.53;101225.70;84837;1328;22616;-71
2022/06/03 11:31:09;;;;;;;;;;;;;;;27.20;28.51;101221.19;84805;1328;24308;-70
2022/06/03 11:33:16;;;;;;;;;;;;;;;27.01;28.40;101214.48;84819;1328;24309;-70
2022/06/03 11:35:28;;;;;;;;;;;;;;;26.93;29.15;101210.10;84857;1329;22571;-70
2022/06/03 11:37:36;;;;;;;;;;;;;;;26.89;28.82;101209.58;84806;1321;22711;-71
2022/06/03 11:39:44;;;;;;;;;;;;;;;26.74;28.31;101201.84;84798;1327;22575;-71
2022/06/03 11:41:53;;;;;;;;;;;;;;;26.54;28.51;101202.61;84819;1329;22757;-70
2022/06/03 11:44:04;;;;;;;;;;;;;;;26.37;28.62;101202.67;84819;1322;22652;-71
2022/06/03 11:46:15;;;;;;;;;;;;;;;26.27;28.73;101201.11;84793;1327;25419;-71
2022/06/03 11:48:58;;;;;;;;;;;;;;;26.34;29.47;101201.17;84804;1326;22652;-71
2022/06/03 11:54:14;;;;;;;;;;;;;;;26.63;29.80;101188.34;84292;1331;25394;-76
2022/06/03 11:56:34;;;;;;;;;;;;;;;26.66;30.10;101189.70;84820;1327;22625;-72
2022/06/03 11:58:44;;;;;;;;;;;;;;;26.70;29.77;101191.09;84807;1328;24080;-75
2022/06/03 12:00:52;;;;;;;;;;;;;;;26.61;29.62;101187.11;84825;1327;24367;-75
2022/06/03 12:03:09;;;;;;;;;;;;;;;26.37;29.53;101188.98;84810;1326;22623;-75
2022/06/03 12:05:19;;;;;;;;;;;;;;;26.08;29.51;101192.70;84777;1327;22591;-76
2022/06/03 12:07:36;;;;;;;;;;;;;;;25.79;29.51;101191.48;84768;1327;22588;-76
2022/06/03 12:09:45;;;;;;;;;;;;;;;25.55;29.67;101187.14;84784;1326;22742;-76
2022/06/03 12:14:32;;;;;;;;;;;;;;;25.45;30.07;101179.67;84811;1327;22603;-76
2022/06/03 12:16:54;;;;;;;;;;;;;;;25.52;30.07;101172.23;84845;1327;25480;-76
2022/06/03 12:19:05;;;;;;;;;;;;;;;25.59;29.90;101169.82;84823;1327;22565;-75
2022/06/03 12:21:13;;;;;;;;;;;;;;;25.64;30.27;101172.23;84785;1325;22562;-71
2022/06/03 12:23:51;;;;;;;;;;;;;;;25.68;30.75;101171.34;84902;1327;22570;-74
2022/06/03 12:26:09;;;;;;;;;;;;;;;25.78;30.51;101166.64;84954;1328;22581;-74
2022/06/03 12:28:22;;;;;;;;;;;;;;;25.81;30.88;101164.38;84990;1328;22592;-75
2022/06/03 12:30:37;;;;;;;;;;;;;;;25.82;30.57;101162.77;85009;1325;22612;-74
2022/06/03 12:37:23;;;;;;;;;;;;;;;;;;;;;
2022/06/03 12:40:50;;;;;;;;;;;;;;;;;;;;;
2022/06/03 12:43:50;;;;;;;;;;;;;;;25.90;30.61;101148.37;84825;1325;22726;-72